KMLB/MLB METAR and TAF weather

Enter ICAO airport designator
Station Type Date Time Source
KMLB METAR 2019/10/22 15:53 UTC NOAA

KMLB 221553Z 24008KT 10SM CLR 31/23 A2999 RMK AO2 SLP156 T03060228


Station Type Date Time Source
KMLB Decoded METAR 2019/10/22 15:53 UTC NOAA

MELBOURNE INTERNATIONAL, FL, United States (KMLB) 28-06N 080-39W 10M
Oct 22, 2019 - 11:53 AM EDT / 2019.10.22 1553 UTC
Wind: from the WSW (240 degrees) at 9 MPH (8 KT):0
Visibility: 10 mile(s):0
Sky conditions: clear
Temperature: 87.1 F (30.6 C)
Heat index: 94.5 F (34.7 C):1
Dew Point: 73.0 F (22.8 C)
Relative Humidity: 63%
Pressure (altimeter): 29.99 in. Hg (1015 hPa)
ob: KMLB 221553Z 24008KT 10SM CLR 31/23 A2999 RMK AO2 SLP156 T03060228
cycle: 16

Station Type Date Time Source
KMLB TAF 2019/10/22 12:22 UTC NOAA

TAF KMLB 221120Z 2212/2312 24003KT P6SM FEW250
FM221400 22007KT P6SM FEW030
FM222000 15010KT P6SM SCT035 BKN060
FM230000 26005KT P6SM FEW045 BKN250
FM230600 32005KT P6SM SCT040 BKN250

Example: see airport list